Аэропорт: Хомутово. Южно-Сахалинск

ICAO: UHSS

METAR:
2021-01-19 12:00:00
UHSS 191200Z 11001MPS 1800 R01/P2000U SHSN BKN023CB M19/M22 Q1016 R01/490550 NOSIG RMK MT OBSC QFE761/1014
METAR:
2021-01-19 09:40:00
TAF AMD UHSS 190940Z 1909/2015 36003MPS 9999 BKN030CB TEMPO 1909/2006 1500 SHSN BKN015CB